sensor_id;sensor_type;location;lat;lon;timestamp;pressure;altitude;pressure_sealevel;temperature;humidity
47260;BME280;32999;52.412;4.890;2023-03-24T00:01:36;99757.84;;;11.74;100.00
47260;BME280;32999;52.412;4.890;2023-03-24T00:06:38;99731.75;;;11.44;100.00
47260;BME280;32999;52.412;4.890;2023-03-24T00:11:41;99713.13;;;11.56;100.00
47260;BME280;32999;52.412;4.890;2023-03-24T00:16:43;99663.34;;;11.30;100.00
47260;BME280;32999;52.412;4.890;2023-03-24T00:21:46;99646.28;;;11.31;100.00
47260;BME280;32999;52.412;4.890;2023-03-24T00:26:49;99717.44;;;11.82;100.00
47260;BME280;32999;52.412;4.890;2023-03-24T00:31:51;99702.63;;;11.79;100.00
47260;BME280;32999;52.412;4.890;2023-03-24T00:36:53;99705.53;;;11.78;100.00
47260;BME280;32999;52.412;4.890;2023-03-24T00:41:56;99676.78;;;11.67;100.00
47260;BME280;32999;52.412;4.890;2023-03-24T00:46:58;99675.75;;;11.68;100.00
47260;BME280;32999;52.412;4.890;2023-03-24T00:52:01;99690.09;;;11.73;100.00
47260;BME280;32999;52.412;4.890;2023-03-24T00:57:12;99584.75;;;11.31;100.00
47260;BME280;32999;52.412;4.890;2023-03-24T01:02:14;99543.56;;;11.14;100.00
47260;BME280;32999;52.412;4.890;2023-03-24T01:07:18;99653.91;;;11.89;100.00
47260;BME280;32999;52.412;4.890;2023-03-24T01:12:22;99573.53;;;11.59;100.00
47260;BME280;32999;52.412;4.890;2023-03-24T01:17:24;99627.72;;;11.91;100.00
47260;BME280;32999;52.412;4.890;2023-03-24T01:22:28;99614.53;;;11.78;100.00
47260;BME280;32999;52.412;4.890;2023-03-24T01:27:32;99632.50;;;12.07;100.00
47260;BME280;32999;52.412;4.890;2023-03-24T01:32:34;99564.81;;;11.64;100.00
47260;BME280;32999;52.412;4.890;2023-03-24T01:37:36;99581.47;;;11.66;100.00
47260;BME280;32999;52.412;4.890;2023-03-24T01:42:40;99553.81;;;11.72;100.00
47260;BME280;32999;52.412;4.890;2023-03-24T01:47:42;99632.03;;;12.10;100.00
47260;BME280;32999;52.412;4.890;2023-03-24T01:52:44;99543.06;;;11.60;100.00
47260;BME280;32999;52.412;4.890;2023-03-24T01:57:52;99545.00;;;11.35;100.00
47260;BME280;32999;52.412;4.890;2023-03-24T02:02:58;99664.31;;;11.97;100.00
47260;BME280;32999;52.412;4.890;2023-03-24T02:08:06;99702.34;;;11.87;100.00
47260;BME280;32999;52.412;4.890;2023-03-24T02:13:11;99627.03;;;10.98;100.00
47260;BME280;32999;52.412;4.890;2023-03-24T02:18:20;99633.22;;;10.91;100.00
47260;BME280;32999;52.412;4.890;2023-03-24T02:29:15;99709.84;;;11.04;100.00
47260;BME280;32999;52.412;4.890;2023-03-24T02:34:53;99712.00;;;10.89;100.00
47260;BME280;32999;52.412;4.890;2023-03-24T02:40:09;99737.22;;;10.68;100.00
47260;BME280;32999;52.412;4.890;2023-03-24T02:45:22;99744.69;;;10.53;100.00
47260;BME280;32999;52.412;4.890;2023-03-24T02:50:29;99758.50;;;10.43;100.00
47260;BME280;32999;52.412;4.890;2023-03-24T02:55:41;99757.50;;;10.38;100.00
47260;BME280;32999;52.412;4.890;2023-03-24T03:00:47;99618.19;;;9.32;100.00
47260;BME280;32999;52.412;4.890;2023-03-24T03:05:54;99768.03;;;10.26;100.00
47260;BME280;32999;52.412;4.890;2023-03-24T03:11:01;99760.25;;;9.92;100.00
47260;BME280;32999;52.412;4.890;2023-03-24T03:16:06;99670.25;;;9.47;100.00
47260;BME280;32999;52.412;4.890;2023-03-24T03:21:12;99694.88;;;9.16;100.00
47260;BME280;32999;52.412;4.890;2023-03-24T03:26:19;99761.34;;;9.51;100.00
47260;BME280;32999;52.412;4.890;2023-03-24T03:31:26;99725.25;;;9.22;100.00
47260;BME280;32999;52.412;4.890;2023-03-24T03:36:34;99749.44;;;9.27;100.00
47260;BME280;32999;52.412;4.890;2023-03-24T03:41:41;99815.94;;;9.55;100.00
47260;BME280;32999;52.412;4.890;2023-03-24T03:46:43;99817.78;;;9.54;100.00
47260;BME280;32999;52.412;4.890;2023-03-24T03:51:45;99827.59;;;9.47;100.00
47260;BME280;32999;52.412;4.890;2023-03-24T03:56:48;99823.69;;;9.43;100.00
47260;BME280;32999;52.412;4.890;2023-03-24T04:01:51;99827.00;;;9.39;100.00
47260;BME280;32999;52.412;4.890;2023-03-24T04:07:01;99861.44;;;9.40;100.00
47260;BME280;32999;52.412;4.890;2023-03-24T04:12:23;99777.06;;;8.93;100.00
47260;BME280;32999;52.412;4.890;2023-03-24T04:17:49;99846.28;;;9.34;100.00
47260;BME280;32999;52.412;4.890;2023-03-24T04:23:01;99847.50;;;9.32;100.00
47260;BME280;32999;52.412;4.890;2023-03-24T04:28:17;99794.53;;;9.09;100.00
47260;BME280;32999;52.412;4.890;2023-03-24T04:33:29;99859.34;;;9.23;100.00
47260;BME280;32999;52.412;4.890;2023-03-24T04:38:38;99819.94;;;9.05;100.00
47260;BME280;32999;52.412;4.890;2023-03-24T04:43:42;99787.28;;;8.76;100.00
47260;BME280;32999;52.412;4.890;2023-03-24T04:48:46;99818.06;;;8.92;100.00
47260;BME280;32999;52.412;4.890;2023-03-24T04:53:48;99914.19;;;9.38;100.00
47260;BME280;32999;52.412;4.890;2023-03-24T04:58:51;99850.84;;;8.93;100.00
47260;BME280;32999;52.412;4.890;2023-03-24T05:03:53;99868.91;;;8.91;100.00
47260;BME280;32999;52.412;4.890;2023-03-24T05:08:56;99830.75;;;8.42;100.00
47260;BME280;32999;52.412;4.890;2023-03-24T05:13:59;99921.91;;;9.20;100.00
47260;BME280;32999;52.412;4.890;2023-03-24T05:19:02;99813.81;;;8.50;100.00
47260;BME280;32999;52.412;4.890;2023-03-24T05:24:04;99877.63;;;8.71;100.00
47260;BME280;32999;52.412;4.890;2023-03-24T05:29:07;99952.25;;;9.12;100.00
47260;BME280;32999;52.412;4.890;2023-03-24T05:34:09;99950.41;;;9.19;100.00
47260;BME280;32999;52.412;4.890;2023-03-24T05:39:12;99963.91;;;9.11;100.00
47260;BME280;32999;52.412;4.890;2023-03-24T05:44:26;99866.06;;;8.51;100.00
47260;BME280;32999;52.412;4.890;2023-03-24T05:49:31;99901.53;;;8.99;100.00
47260;BME280;32999;52.412;4.890;2023-03-24T05:54:37;99966.31;;;9.54;100.00
47260;BME280;32999;52.412;4.890;2023-03-24T05:59:52;99779.44;;;8.20;100.00
47260;BME280;32999;52.412;4.890;2023-03-24T06:05:06;99797.59;;;8.45;100.00
47260;BME280;32999;52.412;4.890;2023-03-24T06:10:10;99929.16;;;9.39;100.00
47260;BME280;32999;52.412;4.890;2023-03-24T06:15:16;100028.16;;;9.77;100.00
47260;BME280;32999;52.412;4.890;2023-03-24T06:20:18;100003.94;;;9.79;100.00
47260;BME280;32999;52.412;4.890;2023-03-24T06:25:19;99946.56;;;9.35;100.00
47260;BME280;32999;52.412;4.890;2023-03-24T06:30:23;99839.41;;;8.51;100.00
47260;BME280;32999;52.412;4.890;2023-03-24T06:35:25;100012.53;;;9.61;100.00
47260;BME280;32999;52.412;4.890;2023-03-24T06:40:26;100021.56;;;9.73;100.00
47260;BME280;32999;52.412;4.890;2023-03-24T06:45:29;99957.44;;;9.34;100.00
47260;BME280;32999;52.412;4.890;2023-03-24T06:50:33;100029.38;;;9.75;100.00
47260;BME280;32999;52.412;4.890;2023-03-24T06:55:35;100031.50;;;9.99;100.00
47260;BME280;32999;52.412;4.890;2023-03-24T07:00:38;99945.09;;;9.26;100.00
47260;BME280;32999;52.412;4.890;2023-03-24T07:05:43;99886.53;;;8.92;100.00
47260;BME280;32999;52.412;4.890;2023-03-24T07:10:46;99990.81;;;9.84;100.00
47260;BME280;32999;52.412;4.890;2023-03-24T07:15:49;100099.97;;;10.20;100.00
47260;BME280;32999;52.412;4.890;2023-03-24T07:20:51;100084.97;;;10.19;100.00
47260;BME280;32999;52.412;4.890;2023-03-24T07:25:53;99975.59;;;9.65;100.00
47260;BME280;32999;52.412;4.890;2023-03-24T07:31:00;100102.91;;;10.51;100.00
47260;BME280;32999;52.412;4.890;2023-03-24T07:36:02;100031.56;;;10.72;100.00
47260;BME280;32999;52.412;4.890;2023-03-24T07:41:04;100030.69;;;11.11;100.00
47260;BME280;32999;52.412;4.890;2023-03-24T07:46:08;100104.31;;;11.33;100.00
47260;BME280;32999;52.412;4.890;2023-03-24T07:51:11;100081.59;;;11.55;100.00
47260;BME280;32999;52.412;4.890;2023-03-24T07:56:14;99944.72;;;11.07;100.00
47260;BME280;32999;52.412;4.890;2023-03-24T08:01:18;100065.06;;;11.65;100.00
47260;BME280;32999;52.412;4.890;2023-03-24T08:06:19;99946.44;;;10.88;100.00
47260;BME280;32999;52.412;4.890;2023-03-24T08:11:22;100096.59;;;12.14;100.00
47260;BME280;32999;52.412;4.890;2023-03-24T08:16:26;99994.63;;;11.78;100.00
47260;BME280;32999;52.412;4.890;2023-03-24T08:21:27;100105.50;;;12.71;100.00
47260;BME280;32999;52.412;4.890;2023-03-24T08:26:29;100030.78;;;12.25;100.00
47260;BME280;32999;52.412;4.890;2023-03-24T08:31:36;100084.81;;;12.78;100.00
47260;BME280;32999;52.412;4.890;2023-03-24T08:36:38;100063.59;;;13.20;100.00
47260;BME280;32999;52.412;4.890;2023-03-24T08:41:47;100098.19;;;14.01;100.00
47260;BME280;32999;52.412;4.890;2023-03-24T08:53:23;100115.91;;;14.20;100.00
47260;BME280;32999;52.412;4.890;2023-03-24T08:58:38;100125.22;;;14.78;100.00
47260;BME280;32999;52.412;4.890;2023-03-24T09:03:40;100074.31;;;13.93;100.00
47260;BME280;32999;52.412;4.890;2023-03-24T09:08:45;100048.72;;;13.90;100.00
47260;BME280;32999;52.412;4.890;2023-03-24T09:13:47;100027.97;;;15.44;100.00
47260;BME280;32999;52.412;4.890;2023-03-24T09:18:49;100134.41;;;17.17;100.00
47260;BME280;32999;52.412;4.890;2023-03-24T09:23:54;100118.06;;;16.90;100.00
47260;BME280;32999;52.412;4.890;2023-03-24T09:28:56;100130.09;;;17.72;100.00
47260;BME280;32999;52.412;4.890;2023-03-24T09:33:58;100126.94;;;18.23;100.00
47260;BME280;32999;52.412;4.890;2023-03-24T09:39:05;100131.75;;;19.02;100.00
47260;BME280;32999;52.412;4.890;2023-03-24T09:44:37;100139.69;;;20.03;100.00
47260;BME280;32999;52.412;4.890;2023-03-24T09:49:40;100077.78;;;19.37;100.00
47260;BME280;32999;52.412;4.890;2023-03-24T09:54:52;100129.78;;;18.39;100.00
47260;BME280;32999;52.412;4.890;2023-03-24T09:59:58;100093.00;;;17.89;100.00
47260;BME280;32999;52.412;4.890;2023-03-24T10:04:59;100160.38;;;18.17;100.00
47260;BME280;32999;52.412;4.890;2023-03-24T10:10:15;100136.09;;;17.40;100.00
47260;BME280;32999;52.412;4.890;2023-03-24T10:15:25;100145.72;;;16.24;100.00
47260;BME280;32999;52.412;4.890;2023-03-24T10:20:36;100171.19;;;14.76;100.00
47260;BME280;32999;52.412;4.890;2023-03-24T10:25:48;100163.19;;;15.81;100.00
47260;BME280;32999;52.412;4.890;2023-03-24T10:30:54;100182.28;;;16.31;100.00
47260;BME280;32999;52.412;4.890;2023-03-24T10:36:02;100187.00;;;16.53;100.00
47260;BME280;32999;52.412;4.890;2023-03-24T10:41:13;100068.94;;;15.46;100.00
47260;BME280;32999;52.412;4.890;2023-03-24T10:46:19;100104.06;;;15.51;100.00
47260;BME280;32999;52.412;4.890;2023-03-24T10:51:25;100133.16;;;16.58;100.00
47260;BME280;32999;52.412;4.890;2023-03-24T10:56:39;100154.16;;;17.73;100.00
47260;BME280;32999;52.412;4.890;2023-03-24T11:01:58;100149.41;;;18.02;100.00
47260;BME280;32999;52.412;4.890;2023-03-24T11:07:04;100166.59;;;18.93;100.00
47260;BME280;32999;52.412;4.890;2023-03-24T11:12:19;100183.41;;;17.98;100.00
47260;BME280;32999;52.412;4.890;2023-03-24T11:17:35;100087.06;;;16.93;100.00
47260;BME280;32999;52.412;4.890;2023-03-24T11:22:41;100156.53;;;17.70;100.00
47260;BME280;32999;52.412;4.890;2023-03-24T11:27:47;100122.53;;;18.17;100.00
47260;BME280;32999;52.412;4.890;2023-03-24T11:32:49;100167.38;;;17.53;100.00
47260;BME280;32999;52.412;4.890;2023-03-24T11:37:51;100182.09;;;17.79;100.00
47260;BME280;32999;52.412;4.890;2023-03-24T11:42:57;100153.50;;;18.05;100.00
47260;BME280;32999;52.412;4.890;2023-03-24T11:48:10;100167.38;;;18.89;100.00
47260;BME280;32999;52.412;4.890;2023-03-24T11:53:16;100126.97;;;19.51;100.00
47260;BME280;32999;52.412;4.890;2023-03-24T11:58:27;100161.78;;;19.80;94.51
47260;BME280;32999;52.412;4.890;2023-03-24T12:03:44;100124.63;;;19.33;93.20
47260;BME280;32999;52.412;4.890;2023-03-24T12:08:57;100166.16;;;19.01;95.40
47260;BME280;32999;52.412;4.890;2023-03-24T12:14:03;100106.34;;;17.74;100.00
47260;BME280;32999;52.412;4.890;2023-03-24T12:30:40;100162.91;;;18.02;100.00
47260;BME280;32999;52.412;4.890;2023-03-24T12:36:12;100049.38;;;16.81;100.00
47260;BME280;32999;52.412;4.890;2023-03-24T12:53:00;100162.09;;;18.23;100.00
47260;BME280;32999;52.412;4.890;2023-03-24T12:58:12;100185.34;;;19.00;100.00
47260;BME280;32999;52.412;4.890;2023-03-24T13:03:27;100153.81;;;19.58;94.95
47260;BME280;32999;52.412;4.890;2023-03-24T13:08:31;100114.25;;;17.63;100.00
47260;BME280;32999;52.412;4.890;2023-03-24T13:13:37;100139.00;;;17.94;100.00
47260;BME280;32999;52.412;4.890;2023-03-24T13:18:45;100140.31;;;18.62;100.00
47260;BME280;32999;52.412;4.890;2023-03-24T13:24:06;100137.38;;;17.71;100.00
47260;BME280;32999;52.412;4.890;2023-03-24T13:29:26;100151.41;;;17.34;100.00
47260;BME280;32999;52.412;4.890;2023-03-24T13:34:47;100138.94;;;16.50;100.00
47260;BME280;32999;52.412;4.890;2023-03-24T13:39:57;100137.44;;;16.59;100.00
47260;BME280;32999;52.412;4.890;2023-03-24T13:45:02;100131.03;;;16.03;100.00
47260;BME280;32999;52.412;4.890;2023-03-24T13:50:12;100062.97;;;15.56;100.00
47260;BME280;32999;52.412;4.890;2023-03-24T13:55:19;100116.69;;;15.39;100.00
47260;BME280;32999;52.412;4.890;2023-03-24T14:00:23;100081.19;;;14.49;100.00
47260;BME280;32999;52.412;4.890;2023-03-24T14:05:32;100033.38;;;14.51;100.00
47260;BME280;32999;52.412;4.890;2023-03-24T14:10:43;100069.31;;;14.68;100.00
47260;BME280;32999;52.412;4.890;2023-03-24T14:15:48;100008.22;;;14.34;100.00
47260;BME280;32999;52.412;4.890;2023-03-24T14:21:03;100139.16;;;14.98;100.00
47260;BME280;32999;52.412;4.890;2023-03-24T14:26:12;100134.47;;;14.93;100.00
47260;BME280;32999;52.412;4.890;2023-03-24T14:31:20;100091.34;;;14.47;100.00
47260;BME280;32999;52.412;4.890;2023-03-24T14:36:27;100083.94;;;14.30;100.00
47260;BME280;32999;52.412;4.890;2023-03-24T14:41:33;100135.00;;;14.30;100.00
47260;BME280;32999;52.412;4.890;2023-03-24T14:46:40;100070.50;;;14.01;100.00
47260;BME280;32999;52.412;4.890;2023-03-24T14:51:49;100110.81;;;14.30;100.00
47260;BME280;32999;52.412;4.890;2023-03-24T14:56:54;100123.16;;;14.20;100.00
47260;BME280;32999;52.412;4.890;2023-03-24T15:02:01;100120.88;;;14.05;100.00
47260;BME280;32999;52.412;4.890;2023-03-24T15:07:11;100110.25;;;14.10;100.00
47260;BME280;32999;52.412;4.890;2023-03-24T15:12:14;100127.28;;;13.86;100.00
47260;BME280;32999;52.412;4.890;2023-03-24T15:17:20;100120.66;;;13.88;100.00
47260;BME280;32999;52.412;4.890;2023-03-24T15:22:26;100072.88;;;13.60;100.00
47260;BME280;32999;52.412;4.890;2023-03-24T15:27:28;99962.63;;;12.64;100.00
47260;BME280;32999;52.412;4.890;2023-03-24T15:32:32;100025.22;;;13.19;100.00
47260;BME280;32999;52.412;4.890;2023-03-24T15:37:41;100109.53;;;13.67;100.00
47260;BME280;32999;52.412;4.890;2023-03-24T15:42:47;100087.25;;;13.48;100.00
47260;BME280;32999;52.412;4.890;2023-03-24T15:47:50;100054.09;;;12.99;100.00
47260;BME280;32999;52.412;4.890;2023-03-24T15:52:59;100079.00;;;13.06;100.00
47260;BME280;32999;52.412;4.890;2023-03-24T15:58:19;100058.47;;;13.18;100.00
47260;BME280;32999;52.412;4.890;2023-03-24T16:04:24;99938.84;;;12.06;100.00
47260;BME280;32999;52.412;4.890;2023-03-24T16:09:04;100076.44;;;12.93;100.00
47260;BME280;32999;52.412;4.890;2023-03-24T16:14:17;100089.91;;;12.86;100.00
47260;BME280;32999;52.412;4.890;2023-03-24T16:19:21;100071.16;;;12.86;100.00
47260;BME280;32999;52.412;4.890;2023-03-24T16:24:24;99985.38;;;12.12;100.00
47260;BME280;32999;52.412;4.890;2023-03-24T16:29:26;100062.31;;;12.79;100.00
47260;BME280;32999;52.412;4.890;2023-03-24T16:34:30;100012.25;;;12.48;100.00
47260;BME280;32999;52.412;4.890;2023-03-24T16:39:33;100012.41;;;12.04;100.00
47260;BME280;32999;52.412;4.890;2023-03-24T16:44:35;99992.50;;;12.18;100.00
47260;BME280;32999;52.412;4.890;2023-03-24T16:49:37;100064.56;;;12.57;100.00
47260;BME280;32999;52.412;4.890;2023-03-24T16:54:40;100076.88;;;12.65;100.00
47260;BME280;32999;52.412;4.890;2023-03-24T16:59:42;100077.69;;;12.66;100.00
47260;BME280;32999;52.412;4.890;2023-03-24T17:04:44;100060.91;;;12.52;100.00
47260;BME280;32999;52.412;4.890;2023-03-24T17:09:47;100068.94;;;12.20;100.00
47260;BME280;32999;52.412;4.890;2023-03-24T17:14:50;100107.69;;;12.18;100.00
47260;BME280;32999;52.412;4.890;2023-03-24T17:19:51;99991.44;;;11.56;100.00
47260;BME280;32999;52.412;4.890;2023-03-24T17:24:55;99954.72;;;11.63;100.00
47260;BME280;32999;52.412;4.890;2023-03-24T17:29:57;100064.53;;;12.01;100.00
47260;BME280;32999;52.412;4.890;2023-03-24T17:34:59;100003.28;;;11.73;100.00
47260;BME280;32999;52.412;4.890;2023-03-24T17:40:04;100046.00;;;12.00;100.00
47260;BME280;32999;52.412;4.890;2023-03-24T17:45:11;100049.31;;;11.95;100.00
47260;BME280;32999;52.412;4.890;2023-03-24T17:50:13;99939.22;;;11.40;100.00
47260;BME280;32999;52.412;4.890;2023-03-24T17:55:16;99981.13;;;11.59;100.00
47260;BME280;32999;52.412;4.890;2023-03-24T18:00:18;100027.28;;;11.93;100.00
47260;BME280;32999;52.412;4.890;2023-03-24T18:05:20;99989.75;;;11.62;100.00
47260;BME280;32999;52.412;4.890;2023-03-24T18:10:23;99893.00;;;10.75;100.00
47260;BME280;32999;52.412;4.890;2023-03-24T18:15:33;100051.47;;;11.80;100.00
47260;BME280;32999;52.412;4.890;2023-03-24T18:20:49;99909.59;;;10.90;100.00
47260;BME280;32999;52.412;4.890;2023-03-24T18:26:03;100032.59;;;11.55;100.00
47260;BME280;32999;52.412;4.890;2023-03-24T18:31:08;99972.72;;;10.91;100.00
47260;BME280;32999;52.412;4.890;2023-03-24T18:36:09;99947.47;;;10.87;100.00
47260;BME280;32999;52.412;4.890;2023-03-24T18:41:13;100035.97;;;11.37;100.00
47260;BME280;32999;52.412;4.890;2023-03-24T18:46:15;99940.50;;;10.67;100.00
47260;BME280;32999;52.412;4.890;2023-03-24T18:51:18;100059.44;;;11.35;100.00
47260;BME280;32999;52.412;4.890;2023-03-24T18:56:21;100068.09;;;11.37;100.00
47260;BME280;32999;52.412;4.890;2023-03-24T19:01:23;100000.31;;;10.85;100.00
47260;BME280;32999;52.412;4.890;2023-03-24T19:06:25;100057.81;;;11.28;100.00
47260;BME280;32999;52.412;4.890;2023-03-24T19:11:31;100039.34;;;11.13;100.00
47260;BME280;32999;52.412;4.890;2023-03-24T19:16:33;99922.66;;;10.54;100.00
47260;BME280;32999;52.412;4.890;2023-03-24T19:21:35;99955.97;;;10.45;100.00
47260;BME280;32999;52.412;4.890;2023-03-24T19:26:38;99951.63;;;10.50;100.00
47260;BME280;32999;52.412;4.890;2023-03-24T19:31:40;100050.00;;;11.19;100.00
47260;BME280;32999;52.412;4.890;2023-03-24T19:36:42;100019.25;;;10.77;100.00
47260;BME280;32999;52.412;4.890;2023-03-24T19:41:45;99962.75;;;10.34;100.00
47260;BME280;32999;52.412;4.890;2023-03-24T19:46:47;100049.00;;;11.01;100.00
47260;BME280;32999;52.412;4.890;2023-03-24T19:51:48;100042.84;;;10.94;100.00
47260;BME280;32999;52.412;4.890;2023-03-24T19:56:52;99939.34;;;10.23;100.00
47260;BME280;32999;52.412;4.890;2023-03-24T20:01:54;99977.31;;;10.65;100.00
47260;BME280;32999;52.412;4.890;2023-03-24T20:06:55;99940.78;;;10.26;100.00
47260;BME280;32999;52.412;4.890;2023-03-24T20:11:59;100038.97;;;10.83;100.00
47260;BME280;32999;52.412;4.890;2023-03-24T20:17:03;100023.75;;;10.83;100.00
47260;BME280;32999;52.412;4.890;2023-03-24T20:22:19;100051.72;;;10.81;100.00
47260;BME280;32999;52.412;4.890;2023-03-24T20:27:22;100025.00;;;10.48;100.00
47260;BME280;32999;52.412;4.890;2023-03-24T20:32:23;99968.69;;;10.43;100.00
47260;BME280;32999;52.412;4.890;2023-03-24T20:37:25;99950.59;;;10.18;100.00
47260;BME280;32999;52.412;4.890;2023-03-24T20:42:32;100004.25;;;10.43;100.00
47260;BME280;32999;52.412;4.890;2023-03-24T20:47:34;99913.00;;;9.80;100.00
47260;BME280;32999;52.412;4.890;2023-03-24T20:52:36;100047.22;;;10.62;100.00
47260;BME280;32999;52.412;4.890;2023-03-24T20:57:39;99959.28;;;10.34;100.00
47260;BME280;32999;52.412;4.890;2023-03-24T21:02:41;99935.22;;;10.07;100.00
47260;BME280;32999;52.412;4.890;2023-03-24T21:07:43;100001.97;;;10.40;100.00
47260;BME280;32999;52.412;4.890;2023-03-24T21:12:47;99965.44;;;10.28;100.00
47260;BME280;32999;52.412;4.890;2023-03-24T21:17:48;99910.16;;;9.82;100.00
47260;BME280;32999;52.412;4.890;2023-03-24T21:22:50;100045.34;;;10.49;100.00
47260;BME280;32999;52.412;4.890;2023-03-24T21:27:57;100033.84;;;10.48;100.00
47260;BME280;32999;52.412;4.890;2023-03-24T21:32:59;100020.91;;;10.39;100.00
47260;BME280;32999;52.412;4.890;2023-03-24T21:38:01;99994.59;;;10.36;100.00
47260;BME280;32999;52.412;4.890;2023-03-24T21:43:06;99960.06;;;10.08;100.00
47260;BME280;32999;52.412;4.890;2023-03-24T21:48:09;99999.13;;;10.48;100.00
47260;BME280;32999;52.412;4.890;2023-03-24T21:53:12;99955.50;;;9.95;100.00
47260;BME280;32999;52.412;4.890;2023-03-24T21:58:16;100013.72;;;10.39;100.00
47260;BME280;32999;52.412;4.890;2023-03-24T22:03:18;100022.13;;;10.23;100.00
47260;BME280;32999;52.412;4.890;2023-03-24T22:08:21;100024.59;;;10.38;100.00
47260;BME280;32999;52.412;4.890;2023-03-24T22:13:27;99879.56;;;9.84;100.00
47260;BME280;32999;52.412;4.890;2023-03-24T22:18:31;100013.88;;;10.64;100.00
47260;BME280;32999;52.412;4.890;2023-03-24T22:23:35;100013.69;;;10.72;100.00
47260;BME280;32999;52.412;4.890;2023-03-24T22:28:40;100007.28;;;10.93;100.00
47260;BME280;32999;52.412;4.890;2023-03-24T22:33:42;100001.34;;;10.78;100.00
47260;BME280;32999;52.412;4.890;2023-03-24T22:38:44;99932.75;;;10.26;100.00
47260;BME280;32999;52.412;4.890;2023-03-24T22:43:47;99910.38;;;10.27;100.00
47260;BME280;32999;52.412;4.890;2023-03-24T22:48:49;100023.13;;;10.68;100.00
47260;BME280;32999;52.412;4.890;2023-03-24T22:53:51;100011.41;;;10.82;100.00
47260;BME280;32999;52.412;4.890;2023-03-24T22:58:54;99969.09;;;10.46;100.00
47260;BME280;32999;52.412;4.890;2023-03-24T23:03:55;100020.06;;;10.51;100.00
47260;BME280;32999;52.412;4.890;2023-03-24T23:08:57;100013.69;;;10.85;100.00
47260;BME280;32999;52.412;4.890;2023-03-24T23:14:01;99951.88;;;10.36;100.00
47260;BME280;32999;52.412;4.890;2023-03-24T23:19:06;99971.59;;;10.35;100.00
47260;BME280;32999;52.412;4.890;2023-03-24T23:24:07;99994.19;;;10.39;100.00
47260;BME280;32999;52.412;4.890;2023-03-24T23:29:10;100015.13;;;10.68;100.00
47260;BME280;32999;52.412;4.890;2023-03-24T23:34:13;99985.56;;;10.50;100.00
47260;BME280;32999;52.412;4.890;2023-03-24T23:39:14;99949.78;;;10.18;100.00
47260;BME280;32999;52.412;4.890;2023-03-24T23:44:17;99852.88;;;9.65;100.00
47260;BME280;32999;52.412;4.890;2023-03-24T23:49:19;99954.13;;;10.26;100.00
47260;BME280;32999;52.412;4.890;2023-03-24T23:54:21;99951.81;;;9.76;100.00
47260;BME280;32999;52.412;4.890;2023-03-24T23:59:24;99922.94;;;9.26;100.00
